sensor_id;sensor_type;location;lat;lon;timestamp;P1;durP1;ratioP1;P2;durP2;ratioP2
12792;SDS011;6460;42.684;23.260;2023-05-07T00:01:26;7.60;;;6.23;;
12792;SDS011;6460;42.684;23.260;2023-05-07T00:03:53;9.23;;;6.10;;
12792;SDS011;6460;42.684;23.260;2023-05-07T00:06:20;6.70;;;5.90;;
12792;SDS011;6460;42.684;23.260;2023-05-07T00:08:49;6.17;;;5.57;;
12792;SDS011;6460;42.684;23.260;2023-05-07T00:11:16;6.77;;;5.90;;
12792;SDS011;6460;42.684;23.260;2023-05-07T00:13:42;6.87;;;5.57;;
12792;SDS011;6460;42.684;23.260;2023-05-07T00:16:09;8.67;;;6.57;;
12792;SDS011;6460;42.684;23.260;2023-05-07T00:18:36;8.27;;;5.80;;
12792;SDS011;6460;42.684;23.260;2023-05-07T00:21:03;8.20;;;6.50;;
12792;SDS011;6460;42.684;23.260;2023-05-07T00:23:30;7.33;;;6.17;;
12792;SDS011;6460;42.684;23.260;2023-05-07T00:25:58;7.43;;;6.20;;
12792;SDS011;6460;42.684;23.260;2023-05-07T00:28:25;7.30;;;6.30;;
12792;SDS011;6460;42.684;23.260;2023-05-07T00:30:52;6.83;;;5.97;;
12792;SDS011;6460;42.684;23.260;2023-05-07T00:33:19;8.10;;;5.93;;
12792;SDS011;6460;42.684;23.260;2023-05-07T00:35:46;8.03;;;6.40;;
12792;SDS011;6460;42.684;23.260;2023-05-07T00:38:13;6.63;;;5.93;;
12792;SDS011;6460;42.684;23.260;2023-05-07T00:40:40;9.93;;;6.63;;
12792;SDS011;6460;42.684;23.260;2023-05-07T00:43:08;7.77;;;5.67;;
12792;SDS011;6460;42.684;23.260;2023-05-07T00:45:34;8.13;;;6.37;;
12792;SDS011;6460;42.684;23.260;2023-05-07T00:48:01;8.30;;;6.40;;
12792;SDS011;6460;42.684;23.260;2023-05-07T00:50:30;8.40;;;6.70;;
12792;SDS011;6460;42.684;23.260;2023-05-07T00:52:58;8.30;;;6.57;;
12792;SDS011;6460;42.684;23.260;2023-05-07T00:55:26;9.23;;;6.40;;
12792;SDS011;6460;42.684;23.260;2023-05-07T00:57:53;7.33;;;6.40;;
12792;SDS011;6460;42.684;23.260;2023-05-07T01:00:21;8.33;;;6.80;;
12792;SDS011;6460;42.684;23.260;2023-05-07T01:02:49;9.07;;;6.80;;
12792;SDS011;6460;42.684;23.260;2023-05-07T01:05:17;11.60;;;7.00;;
12792;SDS011;6460;42.684;23.260;2023-05-07T01:07:46;8.03;;;5.77;;
12792;SDS011;6460;42.684;23.260;2023-05-07T01:10:14;7.27;;;6.47;;
12792;SDS011;6460;42.684;23.260;2023-05-07T01:12:41;6.93;;;5.67;;
12792;SDS011;6460;42.684;23.260;2023-05-07T01:15:10;11.37;;;7.97;;
12792;SDS011;6460;42.684;23.260;2023-05-07T01:17:39;11.47;;;7.70;;
12792;SDS011;6460;42.684;23.260;2023-05-07T01:20:07;8.27;;;5.93;;
12792;SDS011;6460;42.684;23.260;2023-05-07T01:22:37;7.93;;;6.13;;
12792;SDS011;6460;42.684;23.260;2023-05-07T01:25:05;8.67;;;6.10;;
12792;SDS011;6460;42.684;23.260;2023-05-07T01:27:41;6.60;;;5.73;;
12792;SDS011;6460;42.684;23.260;2023-05-07T01:30:08;5.73;;;4.90;;
12792;SDS011;6460;42.684;23.260;2023-05-07T01:32:37;6.10;;;5.00;;
12792;SDS011;6460;42.684;23.260;2023-05-07T01:35:10;5.67;;;4.80;;
12792;SDS011;6460;42.684;23.260;2023-05-07T01:37:39;6.37;;;5.00;;
12792;SDS011;6460;42.684;23.260;2023-05-07T01:40:07;5.03;;;4.53;;
12792;SDS011;6460;42.684;23.260;2023-05-07T01:42:35;5.60;;;4.90;;
12792;SDS011;6460;42.684;23.260;2023-05-07T01:45:02;6.37;;;5.67;;
12792;SDS011;6460;42.684;23.260;2023-05-07T01:47:30;7.33;;;6.07;;
12792;SDS011;6460;42.684;23.260;2023-05-07T01:49:57;5.53;;;5.03;;
12792;SDS011;6460;42.684;23.260;2023-05-07T01:52:24;8.27;;;5.63;;
12792;SDS011;6460;42.684;23.260;2023-05-07T01:54:52;9.77;;;5.47;;
12792;SDS011;6460;42.684;23.260;2023-05-07T01:57:19;7.70;;;6.10;;
12792;SDS011;6460;42.684;23.260;2023-05-07T01:59:46;7.47;;;5.93;;
12792;SDS011;6460;42.684;23.260;2023-05-07T02:02:13;8.40;;;6.60;;
12792;SDS011;6460;42.684;23.260;2023-05-07T02:04:40;6.83;;;5.97;;
12792;SDS011;6460;42.684;23.260;2023-05-07T02:07:07;8.80;;;6.20;;
12792;SDS011;6460;42.684;23.260;2023-05-07T02:09:34;8.37;;;7.00;;
12792;SDS011;6460;42.684;23.260;2023-05-07T02:12:02;7.17;;;5.87;;
12792;SDS011;6460;42.684;23.260;2023-05-07T02:14:29;7.77;;;6.50;;
12792;SDS011;6460;42.684;23.260;2023-05-07T02:16:56;8.07;;;6.70;;
12792;SDS011;6460;42.684;23.260;2023-05-07T02:19:23;8.67;;;6.87;;
12792;SDS011;6460;42.684;23.260;2023-05-07T02:21:50;7.70;;;6.30;;
12792;SDS011;6460;42.684;23.260;2023-05-07T02:24:18;7.67;;;6.03;;
12792;SDS011;6460;42.684;23.260;2023-05-07T02:26:44;8.73;;;6.93;;
12792;SDS011;6460;42.684;23.260;2023-05-07T02:29:13;8.17;;;6.87;;
12792;SDS011;6460;42.684;23.260;2023-05-07T02:31:40;7.73;;;6.60;;
12792;SDS011;6460;42.684;23.260;2023-05-07T02:34:06;8.07;;;6.90;;
12792;SDS011;6460;42.684;23.260;2023-05-07T02:36:33;8.70;;;6.57;;
12792;SDS011;6460;42.684;23.260;2023-05-07T02:39:00;7.77;;;6.63;;
12792;SDS011;6460;42.684;23.260;2023-05-07T02:41:27;9.07;;;7.23;;
12792;SDS011;6460;42.684;23.260;2023-05-07T02:43:54;11.07;;;7.17;;
12792;SDS011;6460;42.684;23.260;2023-05-07T02:46:22;9.87;;;7.80;;
12792;SDS011;6460;42.684;23.260;2023-05-07T02:48:49;10.07;;;7.57;;
12792;SDS011;6460;42.684;23.260;2023-05-07T02:51:17;8.33;;;7.47;;
12792;SDS011;6460;42.684;23.260;2023-05-07T02:53:46;10.70;;;7.70;;
12792;SDS011;6460;42.684;23.260;2023-05-07T02:56:13;10.33;;;7.37;;
12792;SDS011;6460;42.684;23.260;2023-05-07T02:58:40;8.07;;;6.87;;
12792;SDS011;6460;42.684;23.260;2023-05-07T03:01:08;9.87;;;7.80;;
12792;SDS011;6460;42.684;23.260;2023-05-07T03:03:36;11.60;;;8.37;;
12792;SDS011;6460;42.684;23.260;2023-05-07T03:06:04;11.20;;;7.90;;
12792;SDS011;6460;42.684;23.260;2023-05-07T03:08:31;9.37;;;7.37;;
12792;SDS011;6460;42.684;23.260;2023-05-07T03:10:58;12.13;;;7.53;;
12792;SDS011;6460;42.684;23.260;2023-05-07T03:13:25;8.93;;;7.50;;
12792;SDS011;6460;42.684;23.260;2023-05-07T03:31:51;10.13;;;7.10;;
12792;SDS011;6460;42.684;23.260;2023-05-07T03:37:41;9.50;;;7.37;;
12792;SDS011;6460;42.684;23.260;2023-05-07T03:43:13;11.67;;;7.40;;
12792;SDS011;6460;42.684;23.260;2023-05-07T03:45:41;8.90;;;7.30;;
12792;SDS011;6460;42.684;23.260;2023-05-07T03:48:16;7.93;;;7.10;;
12792;SDS011;6460;42.684;23.260;2023-05-07T03:50:43;9.27;;;7.67;;
12792;SDS011;6460;42.684;23.260;2023-05-07T03:53:11;9.03;;;7.17;;
12792;SDS011;6460;42.684;23.260;2023-05-07T03:58:56;10.13;;;7.17;;
12792;SDS011;6460;42.684;23.260;2023-05-07T04:01:22;9.47;;;7.87;;
12792;SDS011;6460;42.684;23.260;2023-05-07T04:03:50;10.43;;;7.60;;
12792;SDS011;6460;42.684;23.260;2023-05-07T04:06:16;9.13;;;7.33;;
12792;SDS011;6460;42.684;23.260;2023-05-07T04:08:44;10.23;;;7.70;;
12792;SDS011;6460;42.684;23.260;2023-05-07T04:11:11;8.77;;;7.73;;
12792;SDS011;6460;42.684;23.260;2023-05-07T04:13:38;9.27;;;6.97;;
12792;SDS011;6460;42.684;23.260;2023-05-07T04:16:06;11.40;;;7.83;;
12792;SDS011;6460;42.684;23.260;2023-05-07T04:18:33;9.80;;;8.10;;
12792;SDS011;6460;42.684;23.260;2023-05-07T04:20:59;12.23;;;6.97;;
12792;SDS011;6460;42.684;23.260;2023-05-07T04:23:26;10.27;;;6.60;;
12792;SDS011;6460;42.684;23.260;2023-05-07T04:25:54;8.73;;;6.73;;
12792;SDS011;6460;42.684;23.260;2023-05-07T04:28:22;10.77;;;7.10;;
12792;SDS011;6460;42.684;23.260;2023-05-07T04:30:50;7.70;;;6.20;;
12792;SDS011;6460;42.684;23.260;2023-05-07T04:33:17;8.63;;;6.10;;
12792;SDS011;6460;42.684;23.260;2023-05-07T04:35:44;8.33;;;6.87;;
12792;SDS011;6460;42.684;23.260;2023-05-07T04:41:18;8.43;;;6.10;;
12792;SDS011;6460;42.684;23.260;2023-05-07T04:43:45;8.10;;;6.80;;
12792;SDS011;6460;42.684;23.260;2023-05-07T04:46:12;8.80;;;6.53;;
12792;SDS011;6460;42.684;23.260;2023-05-07T04:48:47;10.97;;;7.37;;
12792;SDS011;6460;42.684;23.260;2023-05-07T04:54:54;8.00;;;6.80;;
12792;SDS011;6460;42.684;23.260;2023-05-07T04:57:24;8.67;;;7.00;;
12792;SDS011;6460;42.684;23.260;2023-05-07T04:59:51;7.80;;;7.00;;
12792;SDS011;6460;42.684;23.260;2023-05-07T05:02:18;7.97;;;7.03;;
12792;SDS011;6460;42.684;23.260;2023-05-07T05:04:55;9.10;;;7.20;;
12792;SDS011;6460;42.684;23.260;2023-05-07T05:07:22;10.20;;;7.93;;
12792;SDS011;6460;42.684;23.260;2023-05-07T05:09:48;10.33;;;7.07;;
12792;SDS011;6460;42.684;23.260;2023-05-07T05:12:15;8.70;;;7.10;;
12792;SDS011;6460;42.684;23.260;2023-05-07T05:14:44;8.97;;;7.37;;
12792;SDS011;6460;42.684;23.260;2023-05-07T05:17:10;10.77;;;7.47;;
12792;SDS011;6460;42.684;23.260;2023-05-07T05:22:59;8.10;;;7.27;;
12792;SDS011;6460;42.684;23.260;2023-05-07T05:25:25;8.70;;;6.97;;
12792;SDS011;6460;42.684;23.260;2023-05-07T05:27:53;8.87;;;7.47;;
12792;SDS011;6460;42.684;23.260;2023-05-07T05:30:21;8.60;;;7.43;;
12792;SDS011;6460;42.684;23.260;2023-05-07T05:32:48;8.57;;;7.67;;
12792;SDS011;6460;42.684;23.260;2023-05-07T05:35:15;8.60;;;6.90;;
12792;SDS011;6460;42.684;23.260;2023-05-07T05:37:42;8.77;;;7.00;;
12792;SDS011;6460;42.684;23.260;2023-05-07T05:40:10;9.67;;;7.43;;
12792;SDS011;6460;42.684;23.260;2023-05-07T05:42:37;8.80;;;7.57;;
12792;SDS011;6460;42.684;23.260;2023-05-07T05:45:04;10.07;;;7.90;;
12792;SDS011;6460;42.684;23.260;2023-05-07T05:47:33;9.13;;;7.07;;
12792;SDS011;6460;42.684;23.260;2023-05-07T05:50:00;10.43;;;8.10;;
12792;SDS011;6460;42.684;23.260;2023-05-07T05:52:27;12.13;;;8.20;;
12792;SDS011;6460;42.684;23.260;2023-05-07T05:54:55;8.83;;;7.80;;
12792;SDS011;6460;42.684;23.260;2023-05-07T05:57:21;10.00;;;8.03;;
12792;SDS011;6460;42.684;23.260;2023-05-07T06:02:39;9.57;;;7.67;;
12792;SDS011;6460;42.684;23.260;2023-05-07T06:05:06;9.00;;;7.20;;
12792;SDS011;6460;42.684;23.260;2023-05-07T06:07:33;9.03;;;7.37;;
12792;SDS011;6460;42.684;23.260;2023-05-07T06:10:01;8.80;;;7.17;;
12792;SDS011;6460;42.684;23.260;2023-05-07T06:15:49;9.97;;;6.40;;
12792;SDS011;6460;42.684;23.260;2023-05-07T06:18:18;9.87;;;6.80;;
12792;SDS011;6460;42.684;23.260;2023-05-07T06:20:44;11.57;;;9.30;;
12792;SDS011;6460;42.684;23.260;2023-05-07T06:23:13;10.60;;;9.50;;
12792;SDS011;6460;42.684;23.260;2023-05-07T06:25:50;7.70;;;6.90;;
12792;SDS011;6460;42.684;23.260;2023-05-07T06:28:17;7.47;;;6.63;;
12792;SDS011;6460;42.684;23.260;2023-05-07T06:30:46;8.80;;;7.20;;
12792;SDS011;6460;42.684;23.260;2023-05-07T06:33:18;8.10;;;6.43;;
12792;SDS011;6460;42.684;23.260;2023-05-07T06:35:45;8.03;;;6.23;;
12792;SDS011;6460;42.684;23.260;2023-05-07T06:38:14;8.40;;;5.97;;
12792;SDS011;6460;42.684;23.260;2023-05-07T06:40:42;6.40;;;5.77;;
12792;SDS011;6460;42.684;23.260;2023-05-07T06:43:11;7.57;;;6.60;;
12792;SDS011;6460;42.684;23.260;2023-05-07T06:45:42;6.87;;;6.17;;
12792;SDS011;6460;42.684;23.260;2023-05-07T06:50:56;8.87;;;6.60;;
12792;SDS011;6460;42.684;23.260;2023-05-07T06:53:23;8.70;;;7.10;;
12792;SDS011;6460;42.684;23.260;2023-05-07T06:55:51;8.13;;;7.20;;
12792;SDS011;6460;42.684;23.260;2023-05-07T06:58:19;7.63;;;6.87;;
12792;SDS011;6460;42.684;23.260;2023-05-07T07:00:46;10.50;;;6.90;;
12792;SDS011;6460;42.684;23.260;2023-05-07T07:03:13;7.33;;;6.07;;
12792;SDS011;6460;42.684;23.260;2023-05-07T07:05:48;7.10;;;6.40;;
12792;SDS011;6460;42.684;23.260;2023-05-07T07:08:20;6.83;;;6.10;;
12792;SDS011;6460;42.684;23.260;2023-05-07T07:10:48;8.83;;;6.87;;
12792;SDS011;6460;42.684;23.260;2023-05-07T07:13:15;8.97;;;6.67;;
12792;SDS011;6460;42.684;23.260;2023-05-07T07:15:44;7.87;;;6.93;;
12792;SDS011;6460;42.684;23.260;2023-05-07T07:18:12;8.63;;;6.60;;
12792;SDS011;6460;42.684;23.260;2023-05-07T07:20:40;7.93;;;6.80;;
12792;SDS011;6460;42.684;23.260;2023-05-07T07:23:13;7.57;;;6.77;;
12792;SDS011;6460;42.684;23.260;2023-05-07T07:25:43;10.20;;;7.37;;
12792;SDS011;6460;42.684;23.260;2023-05-07T07:28:10;10.00;;;6.27;;
12792;SDS011;6460;42.684;23.260;2023-05-07T07:30:38;12.10;;;7.27;;
12792;SDS011;6460;42.684;23.260;2023-05-07T07:33:06;9.33;;;7.03;;
12792;SDS011;6460;42.684;23.260;2023-05-07T07:35:33;38.60;;;25.13;;
12792;SDS011;6460;42.684;23.260;2023-05-07T07:38:02;9.13;;;7.43;;
12792;SDS011;6460;42.684;23.260;2023-05-07T07:40:31;8.87;;;7.60;;
12792;SDS011;6460;42.684;23.260;2023-05-07T07:43:00;8.37;;;7.47;;
12792;SDS011;6460;42.684;23.260;2023-05-07T07:45:28;9.80;;;7.63;;
12792;SDS011;6460;42.684;23.260;2023-05-07T07:47:55;9.33;;;8.20;;
12792;SDS011;6460;42.684;23.260;2023-05-07T07:50:36;11.57;;;9.67;;
12792;SDS011;6460;42.684;23.260;2023-05-07T07:53:03;8.90;;;7.77;;
12792;SDS011;6460;42.684;23.260;2023-05-07T07:55:36;10.53;;;8.00;;
12792;SDS011;6460;42.684;23.260;2023-05-07T07:58:06;10.13;;;8.03;;
12792;SDS011;6460;42.684;23.260;2023-05-07T08:00:33;9.37;;;8.10;;
12792;SDS011;6460;42.684;23.260;2023-05-07T08:03:01;11.83;;;8.17;;
12792;SDS011;6460;42.684;23.260;2023-05-07T08:05:29;8.07;;;7.27;;
12792;SDS011;6460;42.684;23.260;2023-05-07T08:07:58;8.27;;;6.50;;
12792;SDS011;6460;42.684;23.260;2023-05-07T08:10:25;8.03;;;6.73;;
12792;SDS011;6460;42.684;23.260;2023-05-07T08:12:55;9.10;;;6.83;;
12792;SDS011;6460;42.684;23.260;2023-05-07T08:15:22;8.13;;;6.67;;
12792;SDS011;6460;42.684;23.260;2023-05-07T08:17:52;8.77;;;7.03;;
12792;SDS011;6460;42.684;23.260;2023-05-07T08:20:19;8.50;;;6.60;;
12792;SDS011;6460;42.684;23.260;2023-05-07T08:22:46;8.20;;;6.43;;
12792;SDS011;6460;42.684;23.260;2023-05-07T08:25:13;8.37;;;6.53;;
12792;SDS011;6460;42.684;23.260;2023-05-07T08:27:42;7.93;;;7.10;;
12792;SDS011;6460;42.684;23.260;2023-05-07T08:30:12;6.97;;;6.27;;
12792;SDS011;6460;42.684;23.260;2023-05-07T08:32:40;7.20;;;6.20;;
12792;SDS011;6460;42.684;23.260;2023-05-07T08:35:07;8.83;;;6.47;;
12792;SDS011;6460;42.684;23.260;2023-05-07T08:37:35;7.47;;;6.50;;
12792;SDS011;6460;42.684;23.260;2023-05-07T08:40:03;7.27;;;6.33;;
12792;SDS011;6460;42.684;23.260;2023-05-07T08:42:33;8.03;;;6.53;;
12792;SDS011;6460;42.684;23.260;2023-05-07T08:45:02;7.30;;;6.60;;
12792;SDS011;6460;42.684;23.260;2023-05-07T08:47:34;6.60;;;5.90;;
12792;SDS011;6460;42.684;23.260;2023-05-07T08:50:09;7.40;;;6.70;;
12792;SDS011;6460;42.684;23.260;2023-05-07T08:52:37;6.47;;;5.83;;
12792;SDS011;6460;42.684;23.260;2023-05-07T08:55:04;8.40;;;6.60;;
12792;SDS011;6460;42.684;23.260;2023-05-07T08:57:32;7.83;;;6.13;;
12792;SDS011;6460;42.684;23.260;2023-05-07T08:59:59;7.37;;;6.60;;
12792;SDS011;6460;42.684;23.260;2023-05-07T09:02:26;7.03;;;6.33;;
12792;SDS011;6460;42.684;23.260;2023-05-07T09:04:54;6.73;;;5.97;;
12792;SDS011;6460;42.684;23.260;2023-05-07T09:07:21;8.60;;;6.67;;
12792;SDS011;6460;42.684;23.260;2023-05-07T09:09:51;6.47;;;5.83;;
12792;SDS011;6460;42.684;23.260;2023-05-07T09:12:21;6.23;;;5.63;;
12792;SDS011;6460;42.684;23.260;2023-05-07T09:14:49;6.03;;;5.43;;
12792;SDS011;6460;42.684;23.260;2023-05-07T09:17:16;6.67;;;5.87;;
12792;SDS011;6460;42.684;23.260;2023-05-07T09:19:43;7.10;;;6.13;;
12792;SDS011;6460;42.684;23.260;2023-05-07T09:22:12;6.33;;;5.73;;
12792;SDS011;6460;42.684;23.260;2023-05-07T09:24:41;8.03;;;5.60;;
12792;SDS011;6460;42.684;23.260;2023-05-07T09:27:15;5.70;;;5.20;;
12792;SDS011;6460;42.684;23.260;2023-05-07T09:29:42;6.00;;;5.50;;
12792;SDS011;6460;42.684;23.260;2023-05-07T09:32:10;6.13;;;5.53;;
12792;SDS011;6460;42.684;23.260;2023-05-07T09:34:37;6.40;;;5.80;;
12792;SDS011;6460;42.684;23.260;2023-05-07T09:37:05;6.80;;;6.20;;
12792;SDS011;6460;42.684;23.260;2023-05-07T09:39:40;5.90;;;5.30;;
12792;SDS011;6460;42.684;23.260;2023-05-07T09:42:08;6.10;;;5.37;;
12792;SDS011;6460;42.684;23.260;2023-05-07T09:44:36;4.97;;;4.47;;
12792;SDS011;6460;42.684;23.260;2023-05-07T09:47:04;5.23;;;4.73;;
12792;SDS011;6460;42.684;23.260;2023-05-07T09:49:33;6.10;;;5.13;;
12792;SDS011;6460;42.684;23.260;2023-05-07T09:52:02;5.60;;;5.10;;
12792;SDS011;6460;42.684;23.260;2023-05-07T09:54:31;8.20;;;5.07;;
12792;SDS011;6460;42.684;23.260;2023-05-07T09:57:01;5.77;;;4.87;;
12792;SDS011;6460;42.684;23.260;2023-05-07T09:59:29;6.00;;;4.87;;
12792;SDS011;6460;42.684;23.260;2023-05-07T10:01:59;5.23;;;4.07;;
12792;SDS011;6460;42.684;23.260;2023-05-07T10:04:26;5.10;;;4.60;;
12792;SDS011;6460;42.684;23.260;2023-05-07T10:06:54;4.70;;;4.20;;
12792;SDS011;6460;42.684;23.260;2023-05-07T10:09:22;4.17;;;3.77;;
12792;SDS011;6460;42.684;23.260;2023-05-07T10:11:50;4.03;;;3.57;;
12792;SDS011;6460;42.684;23.260;2023-05-07T10:14:21;5.50;;;3.87;;
12792;SDS011;6460;42.684;23.260;2023-05-07T10:16:48;3.47;;;3.17;;
12792;SDS011;6460;42.684;23.260;2023-05-07T10:19:15;3.87;;;3.57;;
12792;SDS011;6460;42.684;23.260;2023-05-07T10:21:44;4.57;;;3.27;;
12792;SDS011;6460;42.684;23.260;2023-05-07T10:24:19;4.60;;;4.13;;
12792;SDS011;6460;42.684;23.260;2023-05-07T10:26:49;4.77;;;3.93;;
12792;SDS011;6460;42.684;23.260;2023-05-07T10:29:18;4.30;;;3.50;;
12792;SDS011;6460;42.684;23.260;2023-05-07T10:31:55;3.87;;;3.53;;
12792;SDS011;6460;42.684;23.260;2023-05-07T10:34:27;6.73;;;3.87;;
12792;SDS011;6460;42.684;23.260;2023-05-07T10:36:59;3.90;;;3.50;;
12792;SDS011;6460;42.684;23.260;2023-05-07T10:39:29;4.13;;;3.30;;
12792;SDS011;6460;42.684;23.260;2023-05-07T10:41:56;4.17;;;3.23;;
12792;SDS011;6460;42.684;23.260;2023-05-07T10:44:28;3.30;;;2.93;;
12792;SDS011;6460;42.684;23.260;2023-05-07T10:47:03;7.67;;;4.83;;
12792;SDS011;6460;42.684;23.260;2023-05-07T10:49:34;4.03;;;3.63;;
12792;SDS011;6460;42.684;23.260;2023-05-07T10:52:14;8.73;;;4.20;;
12792;SDS011;6460;42.684;23.260;2023-05-07T10:54:42;5.87;;;3.70;;
12792;SDS011;6460;42.684;23.260;2023-05-07T11:00:03;4.03;;;3.63;;
12792;SDS011;6460;42.684;23.260;2023-05-07T11:03:09;3.70;;;3.17;;
12792;SDS011;6460;42.684;23.260;2023-05-07T11:05:37;3.67;;;3.37;;
12792;SDS011;6460;42.684;23.260;2023-05-07T11:08:07;3.43;;;3.10;;
12792;SDS011;6460;42.684;23.260;2023-05-07T11:10:50;6.73;;;3.80;;
12792;SDS011;6460;42.684;23.260;2023-05-07T11:13:40;4.10;;;3.30;;
12792;SDS011;6460;42.684;23.260;2023-05-07T11:16:20;3.53;;;3.23;;
12792;SDS011;6460;42.684;23.260;2023-05-07T11:18:48;3.70;;;3.10;;
12792;SDS011;6460;42.684;23.260;2023-05-07T11:21:32;3.77;;;3.47;;
12792;SDS011;6460;42.684;23.260;2023-05-07T11:24:02;4.80;;;3.33;;
12792;SDS011;6460;42.684;23.260;2023-05-07T11:26:47;3.53;;;3.23;;
12792;SDS011;6460;42.684;23.260;2023-05-07T11:29:15;3.53;;;3.23;;
12792;SDS011;6460;42.684;23.260;2023-05-07T11:31:44;5.87;;;4.27;;
12792;SDS011;6460;42.684;23.260;2023-05-07T11:34:15;3.47;;;3.17;;
12792;SDS011;6460;42.684;23.260;2023-05-07T11:36:46;5.07;;;3.20;;
12792;SDS011;6460;42.684;23.260;2023-05-07T11:39:23;5.40;;;3.50;;
12792;SDS011;6460;42.684;23.260;2023-05-07T11:41:51;4.23;;;3.80;;
12792;SDS011;6460;42.684;23.260;2023-05-07T11:44:18;3.70;;;3.40;;
12792;SDS011;6460;42.684;23.260;2023-05-07T11:46:46;3.93;;;3.53;;
12792;SDS011;6460;42.684;23.260;2023-05-07T11:49:13;3.87;;;3.40;;
12792;SDS011;6460;42.684;23.260;2023-05-07T11:51:40;4.10;;;3.63;;
12792;SDS011;6460;42.684;23.260;2023-05-07T11:54:08;3.63;;;3.33;;
12792;SDS011;6460;42.684;23.260;2023-05-07T11:56:36;5.67;;;3.93;;
12792;SDS011;6460;42.684;23.260;2023-05-07T11:59:04;3.77;;;3.40;;
12792;SDS011;6460;42.684;23.260;2023-05-07T12:01:31;4.37;;;3.43;;
12792;SDS011;6460;42.684;23.260;2023-05-07T12:04:08;3.77;;;3.47;;
12792;SDS011;6460;42.684;23.260;2023-05-07T12:06:36;4.10;;;3.67;;
12792;SDS011;6460;42.684;23.260;2023-05-07T12:09:04;3.50;;;3.20;;
12792;SDS011;6460;42.684;23.260;2023-05-07T12:11:32;3.97;;;3.67;;
12792;SDS011;6460;42.684;23.260;2023-05-07T12:14:00;4.00;;;3.60;;
12792;SDS011;6460;42.684;23.260;2023-05-07T12:16:27;4.13;;;3.83;;
12792;SDS011;6460;42.684;23.260;2023-05-07T12:19:04;4.50;;;4.03;;
12792;SDS011;6460;42.684;23.260;2023-05-07T12:21:37;4.33;;;3.93;;
12792;SDS011;6460;42.684;23.260;2023-05-07T12:24:07;3.33;;;3.10;;
12792;SDS011;6460;42.684;23.260;2023-05-07T12:26:40;3.73;;;3.27;;
12792;SDS011;6460;42.684;23.260;2023-05-07T12:29:30;3.30;;;3.00;;
12792;SDS011;6460;42.684;23.260;2023-05-07T12:31:57;3.30;;;3.00;;
12792;SDS011;6460;42.684;23.260;2023-05-07T12:34:25;2.90;;;2.70;;
12792;SDS011;6460;42.684;23.260;2023-05-07T12:36:53;3.23;;;3.03;;
12792;SDS011;6460;42.684;23.260;2023-05-07T12:39:22;3.07;;;2.77;;
12792;SDS011;6460;42.684;23.260;2023-05-07T12:41:52;3.00;;;2.67;;
12792;SDS011;6460;42.684;23.260;2023-05-07T12:44:23;3.27;;;2.97;;
12792;SDS011;6460;42.684;23.260;2023-05-07T12:46:55;3.17;;;2.93;;
12792;SDS011;6460;42.684;23.260;2023-05-07T12:49:23;3.17;;;2.93;;
12792;SDS011;6460;42.684;23.260;2023-05-07T12:51:58;3.00;;;2.70;;
12792;SDS011;6460;42.684;23.260;2023-05-07T12:55:06;3.23;;;3.00;;
12792;SDS011;6460;42.684;23.260;2023-05-07T12:58:08;3.53;;;3.23;;
12792;SDS011;6460;42.684;23.260;2023-05-07T13:00:41;2.90;;;2.70;;
12792;SDS011;6460;42.684;23.260;2023-05-07T13:03:08;3.00;;;2.70;;
12792;SDS011;6460;42.684;23.260;2023-05-07T13:05:38;3.70;;;3.20;;
12792;SDS011;6460;42.684;23.260;2023-05-07T13:11:38;3.10;;;2.90;;
12792;SDS011;6460;42.684;23.260;2023-05-07T13:14:11;3.30;;;2.90;;
12792;SDS011;6460;42.684;23.260;2023-05-07T13:16:38;3.33;;;3.00;;
12792;SDS011;6460;42.684;23.260;2023-05-07T13:19:07;3.37;;;3.07;;
12792;SDS011;6460;42.684;23.260;2023-05-07T13:21:41;3.70;;;3.10;;
12792;SDS011;6460;42.684;23.260;2023-05-07T13:24:08;3.17;;;2.87;;
12792;SDS011;6460;42.684;23.260;2023-05-07T13:26:36;4.23;;;3.07;;
12792;SDS011;6460;42.684;23.260;2023-05-07T13:29:05;3.60;;;3.30;;
12792;SDS011;6460;42.684;23.260;2023-05-07T13:31:32;3.17;;;2.87;;
12792;SDS011;6460;42.684;23.260;2023-05-07T13:34:00;3.20;;;2.90;;
12792;SDS011;6460;42.684;23.260;2023-05-07T13:36:30;3.70;;;2.60;;
12792;SDS011;6460;42.684;23.260;2023-05-07T13:39:00;3.57;;;3.10;;
12792;SDS011;6460;42.684;23.260;2023-05-07T13:41:30;3.20;;;2.90;;
12792;SDS011;6460;42.684;23.260;2023-05-07T13:44:08;3.20;;;2.90;;
12792;SDS011;6460;42.684;23.260;2023-05-07T13:46:35;3.47;;;3.17;;
12792;SDS011;6460;42.684;23.260;2023-05-07T13:50:05;3.87;;;2.97;;
12792;SDS011;6460;42.684;23.260;2023-05-07T13:52:07;3.23;;;2.93;;
12792;SDS011;6460;42.684;23.260;2023-05-07T13:54:34;3.37;;;3.07;;
12792;SDS011;6460;42.684;23.260;2023-05-07T13:57:01;5.87;;;5.27;;
12792;SDS011;6460;42.684;23.260;2023-05-07T13:59:32;5.50;;;3.70;;
12792;SDS011;6460;42.684;23.260;2023-05-07T14:02:04;3.00;;;2.80;;
12792;SDS011;6460;42.684;23.260;2023-05-07T14:04:34;2.90;;;2.70;;
12792;SDS011;6460;42.684;23.260;2023-05-07T14:07:01;3.40;;;3.20;;
12792;SDS011;6460;42.684;23.260;2023-05-07T14:09:28;3.30;;;3.00;;
12792;SDS011;6460;42.684;23.260;2023-05-07T14:11:55;3.23;;;2.90;;
12792;SDS011;6460;42.684;23.260;2023-05-07T14:14:22;3.20;;;2.87;;
12792;SDS011;6460;42.684;23.260;2023-05-07T14:16:53;3.17;;;2.90;;
12792;SDS011;6460;42.684;23.260;2023-05-07T14:19:23;3.20;;;2.90;;
12792;SDS011;6460;42.684;23.260;2023-05-07T14:22:06;3.40;;;3.03;;
12792;SDS011;6460;42.684;23.260;2023-05-07T14:24:33;3.10;;;2.80;;
12792;SDS011;6460;42.684;23.260;2023-05-07T14:27:00;3.23;;;2.93;;
12792;SDS011;6460;42.684;23.260;2023-05-07T14:29:27;2.97;;;2.77;;
12792;SDS011;6460;42.684;23.260;2023-05-07T14:35:13;3.23;;;2.93;;
12792;SDS011;6460;42.684;23.260;2023-05-07T14:37:41;3.70;;;3.30;;
12792;SDS011;6460;42.684;23.260;2023-05-07T14:40:08;3.30;;;3.00;;
12792;SDS011;6460;42.684;23.260;2023-05-07T14:45:24;2.97;;;2.77;;
12792;SDS011;6460;42.684;23.260;2023-05-07T14:47:51;3.40;;;3.10;;
12792;SDS011;6460;42.684;23.260;2023-05-07T14:50:21;3.50;;;3.20;;
12792;SDS011;6460;42.684;23.260;2023-05-07T14:52:55;3.37;;;3.07;;
12792;SDS011;6460;42.684;23.260;2023-05-07T14:55:22;3.67;;;3.10;;
12792;SDS011;6460;42.684;23.260;2023-05-07T14:57:48;3.30;;;3.00;;
12792;SDS011;6460;42.684;23.260;2023-05-07T15:00:15;4.27;;;3.17;;
12792;SDS011;6460;42.684;23.260;2023-05-07T15:02:43;3.23;;;3.03;;
12792;SDS011;6460;42.684;23.260;2023-05-07T15:05:11;3.30;;;3.00;;
12792;SDS011;6460;42.684;23.260;2023-05-07T15:07:41;4.00;;;3.00;;
12792;SDS011;6460;42.684;23.260;2023-05-07T15:10:08;3.40;;;3.10;;
12792;SDS011;6460;42.684;23.260;2023-05-07T15:12:35;4.07;;;3.07;;
12792;SDS011;6460;42.684;23.260;2023-05-07T15:15:03;3.37;;;3.07;;
12792;SDS011;6460;42.684;23.260;2023-05-07T15:17:30;3.33;;;3.03;;
12792;SDS011;6460;42.684;23.260;2023-05-07T15:19:57;3.20;;;2.93;;
12792;SDS011;6460;42.684;23.260;2023-05-07T15:22:24;4.83;;;3.33;;
12792;SDS011;6460;42.684;23.260;2023-05-07T15:24:53;5.03;;;3.00;;
12792;SDS011;6460;42.684;23.260;2023-05-07T15:27:21;3.40;;;3.10;;
12792;SDS011;6460;42.684;23.260;2023-05-07T15:29:48;3.67;;;3.37;;
12792;SDS011;6460;42.684;23.260;2023-05-07T15:32:15;3.73;;;3.37;;
12792;SDS011;6460;42.684;23.260;2023-05-07T15:34:43;3.33;;;3.00;;
12792;SDS011;6460;42.684;23.260;2023-05-07T15:37:10;3.13;;;2.80;;
12792;SDS011;6460;42.684;23.260;2023-05-07T15:39:37;3.20;;;3.00;;
12792;SDS011;6460;42.684;23.260;2023-05-07T15:42:05;3.23;;;2.93;;
12792;SDS011;6460;42.684;23.260;2023-05-07T15:44:32;3.27;;;2.97;;
12792;SDS011;6460;42.684;23.260;2023-05-07T15:47:00;3.00;;;2.80;;
12792;SDS011;6460;42.684;23.260;2023-05-07T15:49:27;3.10;;;2.80;;
12792;SDS011;6460;42.684;23.260;2023-05-07T15:51:54;3.40;;;3.10;;
12792;SDS011;6460;42.684;23.260;2023-05-07T15:54:22;3.13;;;2.70;;